Time;durP1;ratioP1;P1;durP2;ratioP2;P2;SDS_P1;SDS_P2;PMS_P1;PMS_P2;Temp;Humidity;BMP_temperature;BMP_pressure;BME280_temperature;BME280_humidity;BME280_pressure;Samples;Min_cycle;Max_cycle;Signal;HPM_P1;HPM_P2
2023/01/27 00:02:03;;;;;;;16.02;6.57;;;;;;;;;;5032053;28;20370;-72
2023/01/27 00:04:29;;;;;;;14.85;6.13;;;;;;;;;;5031572;28;20045;-71
2023/01/27 00:06:54;;;;;;;17.30;7.13;;;;;;;;;;5031925;28;20034;-71
2023/01/27 00:09:20;;;;;;;17.67;8.77;;;;;;;;;;5031780;28;20026;-71
2023/01/27 00:14:29;;;;;;;23.48;11.15;;;;;;;;;;5032054;28;20048;-70
2023/01/27 00:16:55;;;;;;;24.15;9.25;;;;;;;;;;5032112;28;20025;-71
2023/01/27 00:19:20;;;;;;;21.17;9.07;;;;;;;;;;5032034;28;20040;-71
2023/01/27 00:24:36;;;;;;;33.47;11.95;;;;;;;;;;5031870;28;20579;-72
2023/01/27 00:27:07;;;;;;;63.75;16.58;;;;;;;;;;5031820;28;20466;-71
2023/01/27 00:29:37;;;;;;;46.88;13.80;;;;;;;;;;5031840;28;20029;-71
2023/01/27 00:34:46;;;;;;;37.45;11.93;;;;;;;;;;5031917;28;20235;-69
2023/01/27 00:37:12;;;;;;;22.23;9.30;;;;;;;;;;5035580;28;20791;-71
2023/01/27 00:39:37;;;;;;;25.83;9.68;;;;;;;;;;5017377;28;20030;-69
2023/01/27 00:42:03;;;;;;;24.40;8.85;;;;;;;;;;5035735;28;20038;-69
2023/01/27 00:44:28;;;;;;;38.33;11.73;;;;;;;;;;5035344;28;20028;-70
2023/01/27 00:46:54;;;;;;;29.73;10.88;;;;;;;;;;5035459;28;20028;-71
2023/01/27 00:49:19;;;;;;;34.13;11.30;;;;;;;;;;5035857;28;20112;-68
2023/01/27 00:51:45;;;;;;;47.83;13.23;;;;;;;;;;5034471;28;20496;-68
2023/01/27 00:54:10;;;;;;;33.67;13.73;;;;;;;;;;5035022;28;20553;-69
2023/01/27 00:56:36;;;;;;;19.55;8.00;;;;;;;;;;5034057;28;20040;-71
2023/01/27 00:59:02;;;;;;;22.45;9.60;;;;;;;;;;5035156;28;20095;-69
2023/01/27 01:01:29;;;;;;;16.70;7.88;;;;;;;;;;5034296;28;20425;-69
2023/01/27 01:03:54;;;;;;;12.68;6.97;;;;;;;;;;5034726;28;20057;-69
2023/01/27 01:06:20;;;;;;;28.30;11.57;;;;;;;;;;5035015;28;20359;-70
2023/01/27 01:08:45;;;;;;;24.42;8.90;;;;;;;;;;5034015;28;20480;-69
2023/01/27 01:11:15;;;;;;;23.23;9.68;;;;;;;;;;5034658;28;20469;-71
2023/01/27 01:13:42;;;;;;;23.15;8.32;;;;;;;;;;5034790;28;20021;-69
2023/01/27 01:16:10;;;;;;;13.75;6.32;;;;;;;;;;5033196;28;20033;-69
2023/01/27 01:18:37;;;;;;;15.25;6.70;;;;;;;;;;5015586;28;20030;-69
2023/01/27 01:21:05;;;;;;;22.27;8.73;;;;;;;;;;5034413;28;20025;-69
2023/01/27 01:23:31;;;;;;;22.17;9.30;;;;;;;;;;5034358;28;20030;-70
2023/01/27 01:25:57;;;;;;;21.75;9.30;;;;;;;;;;5034586;28;20079;-70
2023/01/27 01:28:24;;;;;;;16.42;7.28;;;;;;;;;;5034517;28;20483;-69
2023/01/27 01:30:49;;;;;;;15.38;7.25;;;;;;;;;;5033647;28;20037;-70
2023/01/27 01:33:15;;;;;;;15.38;6.75;;;;;;;;;;5033714;28;20032;-69
2023/01/27 01:35:40;;;;;;;14.32;6.57;;;;;;;;;;5029459;28;20096;-70
2023/01/27 01:38:06;;;;;;;11.88;5.45;;;;;;;;;;5022314;28;20529;-69
2023/01/27 01:40:32;;;;;;;12.00;5.63;;;;;;;;;;5022888;28;20460;-70
2023/01/27 01:42:59;;;;;;;12.80;6.20;;;;;;;;;;5023879;28;20025;-69
2023/01/27 01:45:30;;;;;;;12.50;5.65;;;;;;;;;;5022220;28;20040;-70
2023/01/27 01:47:56;;;;;;;12.50;5.97;;;;;;;;;;5021662;28;20025;-69
2023/01/27 01:50:21;;;;;;;13.73;6.55;;;;;;;;;;5023702;28;20025;-69
2023/01/27 01:52:47;;;;;;;10.27;5.82;;;;;;;;;;5022130;28;20053;-68
2023/01/27 01:55:13;;;;;;;11.57;5.10;;;;;;;;;;5022815;28;20029;-69
2023/01/27 01:57:41;;;;;;;11.50;5.60;;;;;;;;;;5023900;28;20072;-69
2023/01/27 02:00:08;;;;;;;11.85;5.63;;;;;;;;;;5022187;28;20145;-69
2023/01/27 02:02:34;;;;;;;14.02;5.97;;;;;;;;;;5024605;28;20026;-70
2023/01/27 02:05:05;;;;;;;13.85;6.45;;;;;;;;;;5033557;28;20056;-69
2023/01/27 02:07:37;;;;;;;13.77;6.35;;;;;;;;;;5033665;28;20509;-69
2023/01/27 02:10:03;;;;;;;13.65;5.60;;;;;;;;;;5033788;28;20497;-69
2023/01/27 02:12:28;;;;;;;13.23;5.63;;;;;;;;;;5033594;28;20026;-70
2023/01/27 02:14:54;;;;;;;12.20;5.97;;;;;;;;;;5033518;28;20026;-70
2023/01/27 02:17:19;;;;;;;13.20;5.88;;;;;;;;;;5033612;28;20040;-70
2023/01/27 02:20:09;;;;;;;12.77;5.75;;;;;;;;;;5033557;28;20033;-69
2023/01/27 02:22:40;;;;;;;18.20;6.60;;;;;;;;;;5033405;28;20798;-69
2023/01/27 02:25:25;;;;;;;14.07;6.55;;;;;;;;;;5033488;28;20120;-70
2023/01/27 02:27:51;;;;;;;12.93;6.32;;;;;;;;;;5033483;28;20476;-69
2023/01/27 02:30:18;;;;;;;16.70;7.00;;;;;;;;;;5033202;28;20026;-69
2023/01/27 02:32:43;;;;;;;16.00;6.15;;;;;;;;;;5033452;28;20032;-69
2023/01/27 02:35:14;;;;;;;17.42;6.57;;;;;;;;;;5033347;28;20029;-70
2023/01/27 02:37:39;;;;;;;;;;;;;;;;;;5032342;28;20382;-70
2023/01/27 02:40:05;;;;;;;13.32;5.47;;;;;;;;;;5033327;28;19920;-70
2023/01/27 02:42:31;;;;;;;15.27;6.18;;;;;;;;;;5033113;28;20026;-70
2023/01/27 02:44:56;;;;;;;13.38;6.03;;;;;;;;;;5033153;28;20044;-69
2023/01/27 02:47:21;;;;;;;18.15;6.88;;;;;;;;;;5033156;28;20030;-68
2023/01/27 02:49:48;;;;;;;14.60;6.03;;;;;;;;;;5032925;28;20040;-69
2023/01/27 02:52:14;;;;;;;20.02;6.88;;;;;;;;;;5032821;28;20381;-69
2023/01/27 02:54:39;;;;;;;20.40;6.80;;;;;;;;;;5033034;28;20022;-69
2023/01/27 02:57:05;;;;;;;18.15;6.78;;;;;;;;;;5032871;28;20435;-70
2023/01/27 02:59:30;;;;;;;17.67;6.72;;;;;;;;;;5032086;28;20061;-70
2023/01/27 03:01:55;;;;;;;17.23;7.57;;;;;;;;;;5032837;28;20485;-70
2023/01/27 03:04:21;;;;;;;24.65;7.95;;;;;;;;;;5042093;28;20056;-69
2023/01/27 03:06:46;;;;;;;28.10;7.95;;;;;;;;;;5052631;28;20025;-69
2023/01/27 03:09:13;;;;;;;29.05;7.88;;;;;;;;;;5052441;28;20040;-69
2023/01/27 03:19:52;;;;;;;37.42;9.25;;;;;;;;;;5052333;28;20040;-69
2023/01/27 03:22:17;;;;;;;33.92;9.90;;;;;;;;;;5052298;28;20021;-69
2023/01/27 03:24:43;;;;;;;34.38;9.35;;;;;;;;;;5052432;28;20017;-70
2023/01/27 03:27:08;;;;;;;30.42;9.07;;;;;;;;;;5052433;28;20025;-70
2023/01/27 03:32:17;;;;;;;26.75;8.57;;;;;;;;;;5052247;28;20110;-70
2023/01/27 03:34:42;;;;;;;16.58;6.68;;;;;;;;;;5034288;28;20072;-70
2023/01/27 03:48:04;;;;;;;8.90;4.50;;;;;;;;;;5032145;28;20078;-69
2023/01/27 03:50:42;;;;;;;8.02;3.55;;;;;;;;;;5032038;28;20068;-70
2023/01/27 03:53:10;;;;;;;8.57;3.45;;;;;;;;;;5032189;28;20025;-70
2023/01/27 03:55:37;;;;;;;8.52;3.97;;;;;;;;;;5032186;28;20071;-70
2023/01/27 03:58:18;;;;;;;8.95;3.55;;;;;;;;;;5032146;28;20028;-70
2023/01/27 04:00:56;;;;;;;24.17;10.27;;;;;;;;;;5032278;28;20053;-70
2023/01/27 04:08:58;;;;;;;9.02;4.13;;;;;;;;;;5032012;28;20505;-69
2023/01/27 04:14:09;;;;;;;7.80;4.15;;;;;;;;;;5036111;28;20056;-70
2023/01/27 04:16:35;;;;;;;9.50;4.10;;;;;;;;;;5035921;28;20037;-70
2023/01/27 04:19:03;;;;;;;9.75;4.65;;;;;;;;;;5035596;28;20051;-69
2023/01/27 04:21:29;;;;;;;6.63;3.80;;;;;;;;;;5035790;28;20490;-70
2023/01/27 04:23:54;;;;;;;7.85;3.70;;;;;;;;;;5035756;28;20040;-69
2023/01/27 04:26:20;;;;;;;8.27;4.80;;;;;;;;;;5035544;28;20025;-69
2023/01/27 04:28:46;;;;;;;8.52;3.70;;;;;;;;;;5035603;28;20079;-69
2023/01/27 04:31:12;;;;;;;8.15;3.90;;;;;;;;;;5035581;28;20029;-70
2023/01/27 04:33:38;;;;;;;8.70;4.07;;;;;;;;;;5035329;28;20497;-69
2023/01/27 04:36:04;;;;;;;9.82;3.60;;;;;;;;;;5035605;28;20030;-70
2023/01/27 04:38:29;;;;;;;6.72;3.30;;;;;;;;;;5035354;28;20036;-69
2023/01/27 04:40:54;;;;;;;10.07;3.80;;;;;;;;;;5035446;28;20018;-69
2023/01/27 04:43:20;;;;;;;9.90;3.97;;;;;;;;;;5035415;28;20117;-69
2023/01/27 04:45:45;;;;;;;5.47;3.22;;;;;;;;;;5035398;28;20055;-69
2023/01/27 04:48:11;;;;;;;6.45;3.13;;;;;;;;;;5035267;28;20041;-69
2023/01/27 04:50:36;;;;;;;8.43;3.22;;;;;;;;;;5035174;28;20033;-70
2023/01/27 04:53:01;;;;;;;7.88;3.58;;;;;;;;;;5035279;28;20095;-69
2023/01/27 04:55:27;;;;;;;6.82;2.90;;;;;;;;;;5035227;28;20083;-69
2023/01/27 04:57:52;;;;;;;5.95;3.00;;;;;;;;;;5035232;28;20029;-69
2023/01/27 05:00:19;;;;;;;8.00;2.80;;;;;;;;;;5034692;28;20025;-69
2023/01/27 05:02:44;;;;;;;7.30;2.97;;;;;;;;;;5034923;28;20040;-69
2023/01/27 05:05:10;;;;;;;9.60;3.10;;;;;;;;;;5034792;28;20041;-70
2023/01/27 05:07:35;;;;;;;7.47;2.85;;;;;;;;;;5035003;28;20036;-68
2023/01/27 05:10:00;;;;;;;4.93;2.05;;;;;;;;;;5017050;28;20030;-69
2023/01/27 05:12:26;;;;;;;3.50;1.90;;;;;;;;;;5034744;28;20021;-69
2023/01/27 05:14:51;;;;;;;3.42;1.67;;;;;;;;;;5034780;28;20038;-69
2023/01/27 05:17:17;;;;;;;6.93;2.20;;;;;;;;;;5034641;28;20037;-69
2023/01/27 05:19:42;;;;;;;5.50;2.28;;;;;;;;;;5034450;28;20041;-69
2023/01/27 05:22:10;;;;;;;3.53;1.95;;;;;;;;;;5033681;28;20030;-69
2023/01/27 05:24:37;;;;;;;5.18;2.10;;;;;;;;;;5034503;28;20083;-70
2023/01/27 05:27:03;;;;;;;6.97;2.17;;;;;;;;;;5034559;28;20021;-69
2023/01/27 05:29:28;;;;;;;4.47;1.95;;;;;;;;;;5034509;28;20049;-70
2023/01/27 05:31:53;;;;;;;3.35;1.80;;;;;;;;;;5034244;28;20088;-68
2023/01/27 05:34:19;;;;;;;4.70;1.70;;;;;;;;;;5034389;28;20120;-70
2023/01/27 05:36:44;;;;;;;5.88;1.55;;;;;;;;;;5049697;28;20079;-70
2023/01/27 05:39:10;;;;;;;4.97;1.63;;;;;;;;;;5034383;28;20442;-69
2023/01/27 05:41:36;;;;;;;6.78;1.50;;;;;;;;;;5034146;28;20064;-69
2023/01/27 05:44:03;;;;;;;2.42;1.30;;;;;;;;;;5034344;28;20108;-69
2023/01/27 05:46:30;;;;;;;3.65;1.95;;;;;;;;;;5034260;28;20026;-68
2023/01/27 05:49:01;;;;;;;6.03;1.65;;;;;;;;;;5034034;28;20033;-70
2023/01/27 05:51:30;;;;;;;1.83;1.20;;;;;;;;;;5034229;28;20033;-69
2023/01/27 05:53:55;;;;;;;4.78;1.60;;;;;;;;;;5034160;28;20026;-69
2023/01/27 05:56:21;;;;;;;7.13;1.67;;;;;;;;;;5033929;28;20052;-69
2023/01/27 05:58:47;;;;;;;5.35;1.67;;;;;;;;;;5033767;28;20025;-69
2023/01/27 06:01:19;;;;;;;5.28;1.60;;;;;;;;;;5033931;28;20045;-69
2023/01/27 06:03:45;;;;;;;5.28;1.60;;;;;;;;;;5033523;28;20042;-69
2023/01/27 06:06:12;;;;;;;8.00;2.53;;;;;;;;;;5033713;28;20048;-69
2023/01/27 06:08:38;;;;;;;7.60;2.40;;;;;;;;;;5033628;28;20044;-69
2023/01/27 06:11:04;;;;;;;7.07;1.70;;;;;;;;;;5033235;28;20112;-69
2023/01/27 06:13:29;;;;;;;6.00;1.80;;;;;;;;;;5033334;28;20021;-69
2023/01/27 06:15:55;;;;;;;3.85;1.60;;;;;;;;;;5033471;28;20534;-69
2023/01/27 06:18:22;;;;;;;4.47;1.70;;;;;;;;;;5033201;28;20053;-69
2023/01/27 06:20:47;;;;;;;6.10;1.70;;;;;;;;;;5033451;28;20072;-69
2023/01/27 06:23:14;;;;;;;5.38;1.70;;;;;;;;;;5015449;28;20061;-69
2023/01/27 06:25:42;;;;;;;4.13;1.50;;;;;;;;;;5033169;28;20037;-68
2023/01/27 06:28:08;;;;;;;4.00;1.50;;;;;;;;;;5032730;28;20037;-70
2023/01/27 06:30:35;;;;;;;4.57;1.88;;;;;;;;;;5032798;28;20032;-69
2023/01/27 06:33:02;;;;;;;2.83;1.92;;;;;;;;;;5015380;28;20498;-68
2023/01/27 06:35:28;;;;;;;6.07;1.70;;;;;;;;;;5033208;28;20091;-69
2023/01/27 06:37:53;;;;;;;3.47;1.65;;;;;;;;;;5033046;28;20075;-69
2023/01/27 06:40:19;;;;;;;6.93;1.83;;;;;;;;;;5033078;28;20570;-69
2023/01/27 06:42:44;;;;;;;3.97;1.65;;;;;;;;;;5032971;28;20029;-69
2023/01/27 06:45:11;;;;;;;5.10;1.67;;;;;;;;;;5033089;28;20047;-69
2023/01/27 06:47:38;;;;;;;4.85;1.85;;;;;;;;;;5033133;28;20036;-69
2023/01/27 06:50:04;;;;;;;6.38;1.73;;;;;;;;;;5033009;28;20029;-71
2023/01/27 06:52:29;;;;;;;6.55;1.70;;;;;;;;;;5032777;28;20022;-69
2023/01/27 06:54:54;;;;;;;4.85;2.42;;;;;;;;;;5032973;28;20052;-69
2023/01/27 06:57:20;;;;;;;6.75;1.63;;;;;;;;;;5015000;28;20025;-69
2023/01/27 06:59:45;;;;;;;3.95;1.50;;;;;;;;;;5032860;28;20080;-69
2023/01/27 07:02:12;;;;;;;4.40;1.60;;;;;;;;;;5032550;28;20029;-69
2023/01/27 07:04:37;;;;;;;2.50;1.33;;;;;;;;;;5032225;28;20045;-69
2023/01/27 07:07:03;;;;;;;5.43;1.83;;;;;;;;;;5032632;28;20458;-69
2023/01/27 07:09:28;;;;;;;5.60;2.10;;;;;;;;;;5032651;28;20389;-69
2023/01/27 07:11:54;;;;;;;5.05;2.20;;;;;;;;;;5032363;28;20022;-70
2023/01/27 07:14:19;;;;;;;7.95;2.90;;;;;;;;;;5032228;28;20025;-69
2023/01/27 07:16:45;;;;;;;5.78;2.60;;;;;;;;;;5032708;28;20022;-68
2023/01/27 07:19:11;;;;;;;7.20;1.92;;;;;;;;;;5032637;28;20116;-68
2023/01/27 07:21:37;;;;;;;8.68;2.10;;;;;;;;;;5032350;28;20029;-69
2023/01/27 07:24:03;;;;;;;4.70;1.75;;;;;;;;;;5032533;28;20018;-68
2023/01/27 07:26:29;;;;;;;6.82;2.10;;;;;;;;;;5032146;28;20378;-69
2023/01/27 07:28:55;;;;;;;6.13;1.88;;;;;;;;;;5032038;28;20116;-69
2023/01/27 07:31:20;;;;;;;5.68;1.80;;;;;;;;;;5032542;28;20041;-69
2023/01/27 07:33:46;;;;;;;6.50;2.63;;;;;;;;;;5032411;28;20022;-69
2023/01/27 07:36:11;;;;;;;6.15;1.92;;;;;;;;;;5032501;28;20358;-69
2023/01/27 07:38:37;;;;;;;6.00;1.85;;;;;;;;;;5032203;28;20084;-69
2023/01/27 07:41:06;;;;;;;10.15;2.33;;;;;;;;;;5032049;28;20030;-69
2023/01/27 07:43:32;;;;;;;5.40;1.88;;;;;;;;;;5032241;28;20038;-69
2023/01/27 07:45:58;;;;;;;13.32;3.78;;;;;;;;;;5031636;28;20029;-68
2023/01/27 07:48:24;;;;;;;11.35;4.28;;;;;;;;;;5032118;28;20035;-70
2023/01/27 07:50:50;;;;;;;8.13;2.70;;;;;;;;;;5032074;28;20128;-69
2023/01/27 07:53:15;;;;;;;14.43;5.28;;;;;;;;;;5032205;28;20034;-70
2023/01/27 07:55:41;;;;;;;8.95;3.40;;;;;;;;;;5031927;28;20104;-69
2023/01/27 07:58:07;;;;;;;11.85;3.35;;;;;;;;;;5032277;28;20022;-69
2023/01/27 08:00:33;;;;;;;10.57;4.47;;;;;;;;;;5032042;28;20033;-69
2023/01/27 08:02:59;;;;;;;10.02;2.75;;;;;;;;;;5032091;28;20022;-69
2023/01/27 08:05:25;;;;;;;8.57;2.72;;;;;;;;;;5031721;28;20179;-69
2023/01/27 08:07:53;;;;;;;11.35;3.38;;;;;;;;;;5027591;28;20058;-69
2023/01/27 08:10:18;;;;;;;8.38;2.28;;;;;;;;;;5014471;28;20026;-68
2023/01/27 08:12:44;;;;;;;9.93;2.40;;;;;;;;;;5011688;28;20406;-71
2023/01/27 08:15:10;;;;;;;16.88;3.55;;;;;;;;;;5032480;28;20136;-70
2023/01/27 08:17:36;;;;;;;7.40;2.45;;;;;;;;;;5032120;28;20097;-70
2023/01/27 08:20:02;;;;;;;10.38;3.95;;;;;;;;;;5032052;28;20458;-71
2023/01/27 08:22:28;;;;;;;6.78;2.78;;;;;;;;;;5030370;28;20109;-70
2023/01/27 08:24:53;;;;;;;6.95;2.20;;;;;;;;;;5019845;28;20025;-71
2023/01/27 08:27:19;;;;;;;8.70;3.45;;;;;;;;;;5026225;28;20117;-71
2023/01/27 08:29:44;;;;;;;8.70;2.40;;;;;;;;;;5016948;28;20030;-71
2023/01/27 08:32:10;;;;;;;9.00;2.20;;;;;;;;;;5031919;28;20033;-70
2023/01/27 08:34:36;;;;;;;10.07;2.08;;;;;;;;;;5031628;28;20397;-69
2023/01/27 08:37:02;;;;;;;7.45;1.50;;;;;;;;;;5031767;28;20100;-71
2023/01/27 08:39:28;;;;;;;9.52;2.10;;;;;;;;;;5031710;28;20056;-70
2023/01/27 08:41:54;;;;;;;6.13;2.53;;;;;;;;;;5031818;28;20030;-71
2023/01/27 08:44:19;;;;;;;10.95;2.38;;;;;;;;;;5023856;28;20096;-71
2023/01/27 08:46:45;;;;;;;5.22;2.47;;;;;;;;;;5027418;28;20018;-70
2023/01/27 08:49:13;;;;;;;7.72;1.70;;;;;;;;;;5031427;28;20029;-70
2023/01/27 08:51:38;;;;;;;8.18;2.38;;;;;;;;;;5031706;28;20025;-70
2023/01/27 08:54:04;;;;;;;9.07;2.40;;;;;;;;;;5030868;28;20164;-70
2023/01/27 08:56:30;;;;;;;6.32;3.03;;;;;;;;;;5031493;28;20025;-70
2023/01/27 08:58:55;;;;;;;6.70;2.15;;;;;;;;;;5034789;28;20065;-71
2023/01/27 09:01:21;;;;;;;4.47;1.80;;;;;;;;;;5035191;28;20482;-71
2023/01/27 09:03:46;;;;;;;5.07;1.92;;;;;;;;;;5035036;28;20034;-69
2023/01/27 09:06:13;;;;;;;6.05;2.28;;;;;;;;;;5034861;28;20037;-70
2023/01/27 09:08:40;;;;;;;4.72;1.83;;;;;;;;;;5034637;28;20106;-70
2023/01/27 09:11:14;;;;;;;6.10;2.30;;;;;;;;;;5034621;28;20500;-70
2023/01/27 09:13:40;;;;;;;5.55;1.42;;;;;;;;;;5034830;28;20518;-69
2023/01/27 09:16:06;;;;;;;5.55;1.70;;;;;;;;;;5035020;28;20030;-71
2023/01/27 09:18:32;;;;;;;6.15;1.70;;;;;;;;;;5034637;28;20040;-70
2023/01/27 09:21:04;;;;;;;6.15;2.13;;;;;;;;;;5034757;28;20100;-70
2023/01/27 09:23:31;;;;;;;8.07;1.85;;;;;;;;;;5034671;28;20056;-69
2023/01/27 09:25:56;;;;;;;12.95;2.53;;;;;;;;;;5034745;28;20032;-71
2023/01/27 09:28:22;;;;;;;5.25;1.90;;;;;;;;;;5034447;28;20582;-71
2023/01/27 09:30:48;;;;;;;7.65;1.70;;;;;;;;;;5034393;28;20381;-70
2023/01/27 09:33:14;;;;;;;7.03;2.67;;;;;;;;;;5034585;28;20034;-69
2023/01/27 09:35:55;;;;;;;5.43;1.70;;;;;;;;;;5034194;28;20029;-69
2023/01/27 09:38:22;;;;;;;8.65;2.90;;;;;;;;;;5014484;28;20049;-68
2023/01/27 09:41:09;;;;;;;5.50;2.00;;;;;;;;;;5014573;28;20030;-70
2023/01/27 09:43:53;;;;;;;5.35;1.60;;;;;;;;;;5014596;28;20030;-70
2023/01/27 09:46:48;;;;;;;7.05;2.00;;;;;;;;;;5014753;28;20026;-70
2023/01/27 09:49:44;;;;;;;6.25;1.50;;;;;;;;;;4934801;29;20046;-69
2023/01/27 09:52:29;;;;;;;4.00;1.52;;;;;;;;;;4934675;29;20190;-70
2023/01/27 09:55:09;;;;;;;6.60;2.10;;;;;;;;;;4934758;29;20046;-69
2023/01/27 09:57:41;;;;;;;6.05;1.80;;;;;;;;;;4934774;29;20530;-68
2023/01/27 10:00:43;;;;;;;7.00;2.72;;;;;;;;;;4934655;29;20094;-70
2023/01/27 10:03:27;;;;;;;7.57;2.40;;;;;;;;;;4934605;29;20036;-70
2023/01/27 10:06:06;;;;;;;5.85;2.42;;;;;;;;;;4953591;28;20046;-69
2023/01/27 10:08:46;;;;;;;5.25;2.20;;;;;;;;;;4952795;28;20043;-69
2023/01/27 10:11:41;;;;;;;8.02;2.25;;;;;;;;;;4953687;28;20042;-69
2023/01/27 10:14:24;;;;;;;8.27;3.53;;;;;;;;;;4953568;28;20035;-70
2023/01/27 10:17:13;;;;;;;10.10;3.15;;;;;;;;;;4953596;28;20031;-69
2023/01/27 10:20:00;;;;;;;5.93;2.13;;;;;;;;;;4953395;29;20046;-70
2023/01/27 10:22:38;;;;;;;7.65;2.92;;;;;;;;;;4953338;29;20042;-70
2023/01/27 10:25:39;;;;;;;5.63;2.30;;;;;;;;;;4953391;29;20087;-70
2023/01/27 10:28:12;;;;;;;5.85;1.90;;;;;;;;;;5011429;28;20390;-70
2023/01/27 10:30:40;;;;;;;4.45;1.85;;;;;;;;;;5010629;28;20037;-69
2023/01/27 10:33:17;;;;;;;8.57;2.10;;;;;;;;;;5011552;28;20049;-69
2023/01/27 10:35:51;;;;;;;4.72;1.65;;;;;;;;;;5011229;28;20026;-70
2023/01/27 10:38:25;;;;;;;6.60;1.98;;;;;;;;;;5011360;28;20037;-69
2023/01/27 10:41:25;;;;;;;6.47;1.80;;;;;;;;;;5011397;28;20480;-69
2023/01/27 10:44:08;;;;;;;4.40;1.90;;;;;;;;;;5011394;28;20030;-69
2023/01/27 10:46:52;;;;;;;10.77;2.20;;;;;;;;;;5010040;28;20068;-70
2023/01/27 10:49:27;;;;;;;6.18;2.17;;;;;;;;;;5011029;28;20026;-71
2023/01/27 10:52:04;;;;;;;6.72;2.20;;;;;;;;;;5010234;28;20108;-70
2023/01/27 10:54:44;;;;;;;7.55;1.95;;;;;;;;;;5001910;28;20124;-69
2023/01/27 10:57:20;;;;;;;10.37;1.87;;;;;;;;;;5004466;28;20034;-70
2023/01/27 10:59:54;;;;;;;8.45;2.88;;;;;;;;;;5003253;28;20030;-70
2023/01/27 11:02:35;;;;;;;5.95;1.90;;;;;;;;;;5000804;28;20121;-70
2023/01/27 11:05:17;;;;;;;9.55;3.33;;;;;;;;;;5015569;28;20462;-70
2023/01/27 11:07:51;;;;;;;9.50;3.60;;;;;;;;;;5032153;28;20033;-70
2023/01/27 11:10:18;;;;;;;8.77;2.67;;;;;;;;;;5032709;28;20565;-71
2023/01/27 11:12:48;;;;;;;9.27;2.40;;;;;;;;;;5031844;28;20031;-71
2023/01/27 11:15:29;;;;;;;5.10;1.90;;;;;;;;;;5025519;28;20108;-69
2023/01/27 11:18:13;;;;;;;7.07;2.28;;;;;;;;;;5024972;28;20168;-70
2023/01/27 11:20:43;;;;;;;6.03;2.10;;;;;;;;;;5012040;28;20054;-71
2023/01/27 11:23:08;;;;;;;4.20;1.60;;;;;;;;;;5021202;28;20071;-69
2023/01/27 11:25:55;;;;;;;8.25;2.08;;;;;;;;;;5032524;28;20528;-70
2023/01/27 11:28:39;;;;;;;7.25;1.40;;;;;;;;;;5032347;28;20036;-70
2023/01/27 11:31:05;;;;;;;5.95;1.70;;;;;;;;;;5032353;28;20083;-70
2023/01/27 11:33:39;;;;;;;5.63;1.60;;;;;;;;;;5032237;28;20049;-69
2023/01/27 11:36:07;;;;;;;4.85;1.70;;;;;;;;;;5032521;28;20021;-70
2023/01/27 11:38:35;;;;;;;5.97;1.80;;;;;;;;;;5032280;28;20482;-70
2023/01/27 11:41:01;;;;;;;7.00;1.77;;;;;;;;;;5032349;28;20036;-70
2023/01/27 11:43:28;;;;;;;7.15;1.70;;;;;;;;;;5032359;28;20022;-71
2023/01/27 11:46:03;;;;;;;7.03;1.85;;;;;;;;;;5032194;28;20095;-70
2023/01/27 11:48:50;;;;;;;4.57;1.88;;;;;;;;;;5031898;28;20485;-71
2023/01/27 11:51:21;;;;;;;8.38;2.05;;;;;;;;;;5032385;28;20596;-71
2023/01/27 11:54:00;;;;;;;8.98;2.25;;;;;;;;;;5032216;28;20036;-70
2023/01/27 11:56:27;;;;;;;7.15;1.92;;;;;;;;;;5032059;28;20052;-70
2023/01/27 11:59:03;;;;;;;4.03;1.60;;;;;;;;;;5032245;28;20112;-70
2023/01/27 12:02:02;;;;;;;9.85;1.77;;;;;;;;;;5032086;28;20075;-70
2023/01/27 12:04:50;;;;;;;4.30;2.40;;;;;;;;;;4951335;29;20043;-71
2023/01/27 12:07:49;;;;;;;5.88;2.03;;;;;;;;;;4951641;29;20047;-70
2023/01/27 12:10:22;;;;;;;4.30;1.90;;;;;;;;;;4951936;29;20066;-69
2023/01/27 12:12:48;;;;;;;7.57;2.40;;;;;;;;;;4952057;29;20527;-70
2023/01/27 12:15:15;;;;;;;4.75;2.15;;;;;;;;;;4951913;29;20078;-70
2023/01/27 12:17:47;;;;;;;6.38;2.78;;;;;;;;;;4951724;29;20046;-70
2023/01/27 12:20:31;;;;;;;9.75;2.67;;;;;;;;;;4951734;29;20078;-70
2023/01/27 12:23:00;;;;;;;8.32;2.25;;;;;;;;;;4935535;29;20042;-70
2023/01/27 12:25:31;;;;;;;7.47;2.45;;;;;;;;;;4951734;29;20035;-69
2023/01/27 12:28:02;;;;;;;5.75;1.90;;;;;;;;;;4951573;29;20139;-70
2023/01/27 12:30:37;;;;;;;22.00;8.35;;;;;;;;;;4951236;29;20035;-68
2023/01/27 12:33:21;;;;;;;7.55;2.47;;;;;;;;;;4955126;29;20043;-70
2023/01/27 12:35:49;;;;;;;7.72;2.63;;;;;;;;;;4955372;29;20053;-70
2023/01/27 12:38:22;;;;;;;7.13;2.15;;;;;;;;;;4955251;29;20031;-71
2023/01/27 12:41:00;;;;;;;3.75;1.70;;;;;;;;;;5020803;28;20120;-71
2023/01/27 12:43:25;;;;;;;4.75;1.95;;;;;;;;;;5035607;28;20025;-70
2023/01/27 12:46:03;;;;;;;5.45;1.58;;;;;;;;;;5035329;28;20020;-70
2023/01/27 12:48:32;;;;;;;3.42;1.50;;;;;;;;;;5035226;28;20028;-70
2023/01/27 12:51:13;;;;;;;11.13;1.85;;;;;;;;;;5035036;28;20026;-71
2023/01/27 12:53:42;;;;;;;3.65;1.55;;;;;;;;;;5035540;28;20021;-70
2023/01/27 12:56:19;;;;;;;3.42;1.17;;;;;;;;;;5035180;28;20025;-70
2023/01/27 12:58:54;;;;;;;4.82;1.80;;;;;;;;;;5035392;28;20040;-71
2023/01/27 13:01:22;;;;;;;3.85;1.20;;;;;;;;;;5034741;28;20033;-70
2023/01/27 13:03:52;;;;;;;8.75;1.58;;;;;;;;;;5034643;28;20497;-70
2023/01/27 13:06:19;;;;;;;4.13;1.40;;;;;;;;;;5035072;28;20073;-71
2023/01/27 13:08:48;;;;;;;9.40;1.90;;;;;;;;;;5034869;28;20057;-70
2023/01/27 13:11:15;;;;;;;4.75;1.40;;;;;;;;;;5034894;28;20041;-70
2023/01/27 13:13:49;;;;;;;3.20;1.50;;;;;;;;;;5034617;28;20026;-70
2023/01/27 13:16:25;;;;;;;4.53;1.50;;;;;;;;;;5034843;28;20079;-70
2023/01/27 13:18:56;;;;;;;2.35;1.30;;;;;;;;;;5017048;28;20026;-70
2023/01/27 13:21:28;;;;;;;2.17;1.00;;;;;;;;;;5034845;28;20026;-68
2023/01/27 13:23:54;;;;;;;3.53;1.35;;;;;;;;;;5034811;28;20542;-68
2023/01/27 13:26:27;;;;;;;5.88;1.55;;;;;;;;;;5034408;28;20029;-69
2023/01/27 13:29:04;;;;;;;4.22;1.50;;;;;;;;;;5034420;28;20034;-69
2023/01/27 13:31:44;;;;;;;4.03;1.30;;;;;;;;;;5034151;28;20061;-69
2023/01/27 13:34:15;;;;;;;6.18;1.67;;;;;;;;;;5034529;28;20033;-69
2023/01/27 13:36:52;;;;;;;3.28;1.67;;;;;;;;;;5034605;28;20030;-69
2023/01/27 13:39:38;;;;;;;4.82;1.70;;;;;;;;;;5034627;28;20060;-70
2023/01/27 13:42:03;;;;;;;5.38;2.20;;;;;;;;;;5034504;28;20463;-70
2023/01/27 13:44:35;;;;;;;4.68;1.38;;;;;;;;;;5033244;28;20036;-68
2023/01/27 13:47:05;;;;;;;3.92;1.33;;;;;;;;;;5034358;28;20038;-69
2023/01/27 13:49:53;;;;;;;2.83;1.30;;;;;;;;;;5034389;28;20061;-69
2023/01/27 13:52:18;;;;;;;4.65;1.35;;;;;;;;;;5034163;28;20490;-70
2023/01/27 13:54:44;;;;;;;6.97;1.70;;;;;;;;;;5034023;28;20021;-69
2023/01/27 13:57:28;;;;;;;6.57;2.00;;;;;;;;;;5033733;28;20034;-71
2023/01/27 13:59:59;;;;;;;5.82;2.80;;;;;;;;;;5034435;28;20390;-70
2023/01/27 14:02:42;;;;;;;6.55;2.00;;;;;;;;;;5033892;28;20025;-69
2023/01/27 14:05:25;;;;;;;4.82;2.00;;;;;;;;;;5033562;28;20052;-70
2023/01/27 14:07:59;;;;;;;5.57;2.05;;;;;;;;;;5033548;28;20029;-69
2023/01/27 14:10:36;;;;;;;8.23;3.63;;;;;;;;;;5033717;28;20060;-69
2023/01/27 14:13:41;;;;;;;5.63;3.22;;;;;;;;;;5033543;28;20025;-70
2023/01/27 14:16:21;;;;;;;5.35;2.85;;;;;;;;;;5033801;28;20612;-69
2023/01/27 14:18:59;;;;;;;8.13;3.05;;;;;;;;;;5033696;28;20135;-70
2023/01/27 14:21:30;;;;;;;22.77;11.77;;;;;;;;;;5033713;28;20034;-70
2023/01/27 14:24:14;;;;;;;10.57;4.10;;;;;;;;;;5033688;28;20028;-70
2023/01/27 14:26:55;;;;;;;4.90;2.28;;;;;;;;;;5033201;28;20021;-70
2023/01/27 14:29:29;;;;;;;;;;;;;;;;;;5034068;28;20041;-70
2023/01/27 14:32:01;;;;;;;3.72;2.10;;;;;;;;;;5033499;28;19975;-69
2023/01/27 14:34:26;;;;;;;3.13;1.63;;;;;;;;;;5033172;28;20029;-70
2023/01/27 14:37:02;;;;;;;5.78;1.80;;;;;;;;;;5033275;28;20093;-70
2023/01/27 14:39:44;;;;;;;18.58;5.20;;;;;;;;;;5033176;28;20022;-70
2023/01/27 14:42:14;;;;;;;11.63;5.15;;;;;;;;;;5033017;28;20313;-70
2023/01/27 14:45:07;;;;;;;7.75;3.92;;;;;;;;;;5033174;28;20030;-70
2023/01/27 14:47:57;;;;;;;13.43;7.10;;;;;;;;;;5033211;28;20032;-70
2023/01/27 14:50:32;;;;;;;9.77;3.30;;;;;;;;;;5032641;28;20026;-70
2023/01/27 14:53:32;;;;;;;5.80;2.20;;;;;;;;;;5033022;28;20048;-70
2023/01/27 14:56:25;;;;;;;7.40;2.47;;;;;;;;;;4971820;28;20222;-70
2023/01/27 14:59:19;;;;;;;13.73;4.18;;;;;;;;;;4972115;28;20031;-71
2023/01/27 15:02:00;;;;;;;6.90;3.00;;;;;;;;;;4972079;28;20035;-70
2023/01/27 15:04:50;;;;;;;15.25;4.40;;;;;;;;;;4971446;28;20134;-70
2023/01/27 15:07:56;;;;;;;6.20;2.88;;;;;;;;;;4971855;28;20090;-71
2023/01/27 15:10:23;;;;;;;4.57;1.85;;;;;;;;;;4971590;28;20062;-71
2023/01/27 15:13:16;;;;;;;5.80;2.40;;;;;;;;;;4971830;28;20121;-70
2023/01/27 15:16:00;;;;;;;6.70;2.80;;;;;;;;;;4971788;28;20134;-70
2023/01/27 15:18:56;;;;;;;8.93;3.13;;;;;;;;;;4971771;28;20035;-71
2023/01/27 15:21:40;;;;;;;10.20;3.63;;;;;;;;;;4970060;28;20041;-70
2023/01/27 15:24:06;;;;;;;5.78;2.50;;;;;;;;;;4960916;28;20039;-70
2023/01/27 15:26:33;;;;;;;7.10;2.80;;;;;;;;;;4961983;28;20034;-70
2023/01/27 15:28:59;;;;;;;7.78;2.50;;;;;;;;;;4961497;28;20463;-71
2023/01/27 15:31:28;;;;;;;5.93;2.75;;;;;;;;;;4960063;28;20031;-70
2023/01/27 15:34:02;;;;;;;7.43;3.00;;;;;;;;;;5019564;28;20116;-71
2023/01/27 15:36:28;;;;;;;13.25;3.63;;;;;;;;;;5031200;28;20394;-70
2023/01/27 15:39:09;;;;;;;10.50;3.83;;;;;;;;;;5031922;28;20055;-69